sensor_id;sensor_type;location;lat;lon;timestamp;temperature;humidity
63202;DHT22;49296;48.188;11.566;2022-07-24T00:00:19;23.84;61.37
63202;DHT22;49296;48.188;11.566;2022-07-24T00:02:45;23.89;61.34
63202;DHT22;49296;48.188;11.566;2022-07-24T00:05:11;23.94;61.23
63202;DHT22;49296;48.188;11.566;2022-07-24T00:07:38;23.99;61.19
63202;DHT22;49296;48.188;11.566;2022-07-24T00:10:05;24.04;61.00
63202;DHT22;49296;48.188;11.566;2022-07-24T00:12:33;24.08;60.87
63202;DHT22;49296;48.188;11.566;2022-07-24T00:14:59;24.16;60.70
63202;DHT22;49296;48.188;11.566;2022-07-24T00:17:26;24.17;60.83
63202;DHT22;49296;48.188;11.566;2022-07-24T00:19:52;24.20;60.66
63202;DHT22;49296;48.188;11.566;2022-07-24T00:22:19;24.24;60.60
63202;DHT22;49296;48.188;11.566;2022-07-24T00:24:45;24.17;60.24
63202;DHT22;49296;48.188;11.566;2022-07-24T00:27:12;24.24;59.98
63202;DHT22;49296;48.188;11.566;2022-07-24T00:29:39;24.19;59.76
63202;DHT22;49296;48.188;11.566;2022-07-24T00:32:06;24.16;59.52
63202;DHT22;49296;48.188;11.566;2022-07-24T00:34:32;24.17;59.27
63202;DHT22;49296;48.188;11.566;2022-07-24T00:36:59;24.22;59.22
63202;DHT22;49296;48.188;11.566;2022-07-24T00:39:25;24.27;58.92
63202;DHT22;49296;48.188;11.566;2022-07-24T00:41:52;24.34;58.86
63202;DHT22;49296;48.188;11.566;2022-07-24T00:44:18;24.33;58.74
63202;DHT22;49296;48.188;11.566;2022-07-24T00:46:46;24.39;58.76
63202;DHT22;49296;48.188;11.566;2022-07-24T00:49:14;24.32;58.57
63202;DHT22;49296;48.188;11.566;2022-07-24T00:51:41;24.23;58.40
63202;DHT22;49296;48.188;11.566;2022-07-24T00:54:09;24.19;58.65
63202;DHT22;49296;48.188;11.566;2022-07-24T00:56:36;24.19;58.66
63202;DHT22;49296;48.188;11.566;2022-07-24T00:59:03;24.24;58.56
63202;DHT22;49296;48.188;11.566;2022-07-24T01:01:30;24.20;58.84
63202;DHT22;49296;48.188;11.566;2022-07-24T01:03:58;24.19;59.11
63202;DHT22;49296;48.188;11.566;2022-07-24T01:06:24;24.24;59.11
63202;DHT22;49296;48.188;11.566;2022-07-24T01:08:51;24.01;59.77
63202;DHT22;49296;48.188;11.566;2022-07-24T01:11:18;23.94;60.04
63202;DHT22;49296;48.188;11.566;2022-07-24T01:13:45;23.86;60.49
63202;DHT22;49296;48.188;11.566;2022-07-24T01:16:12;23.85;60.73
63202;DHT22;49296;48.188;11.566;2022-07-24T01:18:39;23.77;60.95
63202;DHT22;49296;48.188;11.566;2022-07-24T01:21:07;23.65;61.21
63202;DHT22;49296;48.188;11.566;2022-07-24T01:23:34;23.71;61.18
63202;DHT22;49296;48.188;11.566;2022-07-24T01:26:00;23.74;61.28
63202;DHT22;49296;48.188;11.566;2022-07-24T01:28:27;23.68;61.40
63202;DHT22;49296;48.188;11.566;2022-07-24T01:30:54;23.65;61.61
63202;DHT22;49296;48.188;11.566;2022-07-24T01:33:20;23.78;61.39
63202;DHT22;49296;48.188;11.566;2022-07-24T01:35:47;23.75;61.53
63202;DHT22;49296;48.188;11.566;2022-07-24T01:38:15;23.74;61.62
63202;DHT22;49296;48.188;11.566;2022-07-24T01:40:41;23.86;61.33
63202;DHT22;49296;48.188;11.566;2022-07-24T01:43:07;23.79;61.48
63202;DHT22;49296;48.188;11.566;2022-07-24T01:45:34;23.81;61.04
63202;DHT22;49296;48.188;11.566;2022-07-24T01:48:00;23.88;60.97
63202;DHT22;49296;48.188;11.566;2022-07-24T01:50:27;23.90;60.83
63202;DHT22;49296;48.188;11.566;2022-07-24T01:52:53;23.94;60.68
63202;DHT22;49296;48.188;11.566;2022-07-24T01:55:21;23.96;60.75
63202;DHT22;49296;48.188;11.566;2022-07-24T01:57:48;23.98;60.63
63202;DHT22;49296;48.188;11.566;2022-07-24T02:00:15;24.05;60.45
63202;DHT22;49296;48.188;11.566;2022-07-24T02:02:42;23.95;60.47
63202;DHT22;49296;48.188;11.566;2022-07-24T02:05:09;23.98;60.59
63202;DHT22;49296;48.188;11.566;2022-07-24T02:07:35;23.88;60.79
63202;DHT22;49296;48.188;11.566;2022-07-24T02:10:02;23.90;60.81
63202;DHT22;49296;48.188;11.566;2022-07-24T02:12:30;23.89;60.92
63202;DHT22;49296;48.188;11.566;2022-07-24T02:14:56;23.88;61.08
63202;DHT22;49296;48.188;11.566;2022-07-24T02:17:23;23.86;61.02
63202;DHT22;49296;48.188;11.566;2022-07-24T02:19:49;23.81;61.41
63202;DHT22;49296;48.188;11.566;2022-07-24T02:22:16;23.86;61.48
63202;DHT22;49296;48.188;11.566;2022-07-24T02:24:42;23.75;61.85
63202;DHT22;49296;48.188;11.566;2022-07-24T02:27:08;23.72;62.13
63202;DHT22;49296;48.188;11.566;2022-07-24T02:32:14;23.72;62.24
63202;DHT22;49296;48.188;11.566;2022-07-24T02:34:40;23.74;62.09
63202;DHT22;49296;48.188;11.566;2022-07-24T02:37:07;23.77;61.98
63202;DHT22;49296;48.188;11.566;2022-07-24T02:39:33;23.78;61.95
63202;DHT22;49296;48.188;11.566;2022-07-24T02:42:00;23.64;62.29
63202;DHT22;49296;48.188;11.566;2022-07-24T02:44:26;23.67;62.29
63202;DHT22;49296;48.188;11.566;2022-07-24T02:46:53;23.67;62.33
63202;DHT22;49296;48.188;11.566;2022-07-24T02:49:21;23.55;62.70
63202;DHT22;49296;48.188;11.566;2022-07-24T02:51:47;23.57;62.56
63202;DHT22;49296;48.188;11.566;2022-07-24T02:54:14;23.37;62.77
63202;DHT22;49296;48.188;11.566;2022-07-24T02:56:41;23.43;62.79
63202;DHT22;49296;48.188;11.566;2022-07-24T02:59:07;23.49;62.84
63202;DHT22;49296;48.188;11.566;2022-07-24T03:01:34;23.47;62.63
63202;DHT22;49296;48.188;11.566;2022-07-24T03:04:01;23.47;62.70
63202;DHT22;49296;48.188;11.566;2022-07-24T03:06:29;23.40;62.57
63202;DHT22;49296;48.188;11.566;2022-07-24T03:08:55;23.39;62.60
63202;DHT22;49296;48.188;11.566;2022-07-24T03:11:22;23.44;62.34
63202;DHT22;49296;48.188;11.566;2022-07-24T03:13:48;23.47;62.33
63202;DHT22;49296;48.188;11.566;2022-07-24T03:16:15;23.44;62.61
63202;DHT22;49296;48.188;11.566;2022-07-24T03:18:42;23.39;62.84
63202;DHT22;49296;48.188;11.566;2022-07-24T03:21:11;23.33;62.92
63202;DHT22;49296;48.188;11.566;2022-07-24T03:23:39;23.39;62.71
63202;DHT22;49296;48.188;11.566;2022-07-24T03:26:05;23.34;62.72
63202;DHT22;49296;48.188;11.566;2022-07-24T03:28:32;23.20;62.93
63202;DHT22;49296;48.188;11.566;2022-07-24T03:30:58;23.27;62.64
63202;DHT22;49296;48.188;11.566;2022-07-24T03:33:25;23.31;62.38
63202;DHT22;49296;48.188;11.566;2022-07-24T03:35:52;23.33;62.29
63202;DHT22;49296;48.188;11.566;2022-07-24T03:38:19;23.30;62.33
63202;DHT22;49296;48.188;11.566;2022-07-24T03:40:47;23.27;62.35
63202;DHT22;49296;48.188;11.566;2022-07-24T03:43:13;23.15;63.04
63202;DHT22;49296;48.188;11.566;2022-07-24T03:45:40;23.20;62.87
63202;DHT22;49296;48.188;11.566;2022-07-24T03:48:06;23.13;62.99
63202;DHT22;49296;48.188;11.566;2022-07-24T03:50:33;23.09;63.22
63202;DHT22;49296;48.188;11.566;2022-07-24T03:52:59;23.09;63.29
63202;DHT22;49296;48.188;11.566;2022-07-24T03:55:26;23.09;63.47
63202;DHT22;49296;48.188;11.566;2022-07-24T03:57:54;23.06;63.57
63202;DHT22;49296;48.188;11.566;2022-07-24T04:00:21;22.90;64.11
63202;DHT22;49296;48.188;11.566;2022-07-24T04:02:47;22.88;64.31
63202;DHT22;49296;48.188;11.566;2022-07-24T04:05:14;22.79;64.53
63202;DHT22;49296;48.188;11.566;2022-07-24T04:07:40;22.74;64.79
63202;DHT22;49296;48.188;11.566;2022-07-24T04:10:07;22.47;65.70
63202;DHT22;49296;48.188;11.566;2022-07-24T04:12:34;22.43;66.05
63202;DHT22;49296;48.188;11.566;2022-07-24T04:15:02;22.41;66.09
63202;DHT22;49296;48.188;11.566;2022-07-24T04:17:29;22.35;66.27
63202;DHT22;49296;48.188;11.566;2022-07-24T04:19:56;22.44;66.17
63202;DHT22;49296;48.188;11.566;2022-07-24T04:22:22;22.48;66.05
63202;DHT22;49296;48.188;11.566;2022-07-24T04:24:49;22.43;66.50
63202;DHT22;49296;48.188;11.566;2022-07-24T04:27:15;22.47;66.48
63202;DHT22;49296;48.188;11.566;2022-07-24T04:29:42;22.16;67.54
63202;DHT22;49296;48.188;11.566;2022-07-24T04:32:09;22.08;67.88
63202;DHT22;49296;48.188;11.566;2022-07-24T04:34:36;22.08;68.07
63202;DHT22;49296;48.188;11.566;2022-07-24T04:37:03;22.09;68.05
63202;DHT22;49296;48.188;11.566;2022-07-24T04:39:29;22.20;67.73
63202;DHT22;49296;48.188;11.566;2022-07-24T04:41:56;22.19;68.07
63202;DHT22;49296;48.188;11.566;2022-07-24T04:44:22;21.99;69.02
63202;DHT22;49296;48.188;11.566;2022-07-24T04:46:49;22.10;68.72
63202;DHT22;49296;48.188;11.566;2022-07-24T04:49:17;22.02;69.04
63202;DHT22;49296;48.188;11.566;2022-07-24T04:51:43;22.01;69.18
63202;DHT22;49296;48.188;11.566;2022-07-24T04:54:10;22.08;69.21
63202;DHT22;49296;48.188;11.566;2022-07-24T04:56:36;22.09;69.37
63202;DHT22;49296;48.188;11.566;2022-07-24T04:59:03;22.12;69.26
63202;DHT22;49296;48.188;11.566;2022-07-24T05:01:29;22.15;69.24
63202;DHT22;49296;48.188;11.566;2022-07-24T05:03:56;22.26;69.11
63202;DHT22;49296;48.188;11.566;2022-07-24T05:06:25;22.19;69.23
63202;DHT22;49296;48.188;11.566;2022-07-24T05:08:51;22.22;69.27
63202;DHT22;49296;48.188;11.566;2022-07-24T05:11:18;22.13;69.70
63202;DHT22;49296;48.188;11.566;2022-07-24T05:13:44;22.19;69.46
63202;DHT22;49296;48.188;11.566;2022-07-24T05:16:11;22.20;69.54
63202;DHT22;49296;48.188;11.566;2022-07-24T05:18:37;22.08;69.97
63202;DHT22;49296;48.188;11.566;2022-07-24T05:21:04;22.12;69.66
63202;DHT22;49296;48.188;11.566;2022-07-24T05:23:32;22.05;70.03
63202;DHT22;49296;48.188;11.566;2022-07-24T05:25:59;22.20;69.60
63202;DHT22;49296;48.188;11.566;2022-07-24T05:28:25;22.30;69.19
63202;DHT22;49296;48.188;11.566;2022-07-24T05:30:52;22.39;68.84
63202;DHT22;49296;48.188;11.566;2022-07-24T05:33:18;22.41;68.64
63202;DHT22;49296;48.188;11.566;2022-07-24T05:35:45;22.47;68.26
63202;DHT22;49296;48.188;11.566;2022-07-24T05:38:11;22.51;68.35
63202;DHT22;49296;48.188;11.566;2022-07-24T05:40:39;22.41;68.90
63202;DHT22;49296;48.188;11.566;2022-07-24T05:43:06;22.53;68.41
63202;DHT22;49296;48.188;11.566;2022-07-24T05:45:32;22.54;68.31
63202;DHT22;49296;48.188;11.566;2022-07-24T05:47:59;22.57;67.69
63202;DHT22;49296;48.188;11.566;2022-07-24T05:50:25;22.64;67.58
63202;DHT22;49296;48.188;11.566;2022-07-24T05:52:52;22.64;67.49
63202;DHT22;49296;48.188;11.566;2022-07-24T05:55:18;22.68;67.22
63202;DHT22;49296;48.188;11.566;2022-07-24T05:57:46;22.68;66.85
63202;DHT22;49296;48.188;11.566;2022-07-24T06:00:14;22.74;66.07
63202;DHT22;49296;48.188;11.566;2022-07-24T06:02:43;22.84;65.97
63202;DHT22;49296;48.188;11.566;2022-07-24T06:05:11;22.71;65.31
63202;DHT22;49296;48.188;11.566;2022-07-24T06:07:38;22.90;64.67
63202;DHT22;49296;48.188;11.566;2022-07-24T06:10:05;22.96;64.35
63202;DHT22;49296;48.188;11.566;2022-07-24T06:12:32;23.06;63.97
63202;DHT22;49296;48.188;11.566;2022-07-24T06:14:59;23.12;63.57
63202;DHT22;49296;48.188;11.566;2022-07-24T06:17:26;23.13;63.05
63202;DHT22;49296;48.188;11.566;2022-07-24T06:19:53;23.15;62.92
63202;DHT22;49296;48.188;11.566;2022-07-24T06:22:19;23.24;62.73
63202;DHT22;49296;48.188;11.566;2022-07-24T06:24:46;23.31;62.55
63202;DHT22;49296;48.188;11.566;2022-07-24T06:27:12;23.37;62.30
63202;DHT22;49296;48.188;11.566;2022-07-24T06:29:39;23.31;62.28
63202;DHT22;49296;48.188;11.566;2022-07-24T06:32:07;23.43;61.62
63202;DHT22;49296;48.188;11.566;2022-07-24T06:34:34;23.34;61.07
63202;DHT22;49296;48.188;11.566;2022-07-24T06:37:00;23.46;59.60
63202;DHT22;49296;48.188;11.566;2022-07-24T06:39:27;23.44;59.26
63202;DHT22;49296;48.188;11.566;2022-07-24T06:41:53;23.46;59.22
63202;DHT22;49296;48.188;11.566;2022-07-24T06:44:20;23.64;59.35
63202;DHT22;49296;48.188;11.566;2022-07-24T06:46:47;23.70;58.74
63202;DHT22;49296;48.188;11.566;2022-07-24T06:49:15;23.75;58.74
63202;DHT22;49296;48.188;11.566;2022-07-24T06:51:42;23.81;58.50
63202;DHT22;49296;48.188;11.566;2022-07-24T06:54:09;23.84;58.58
63202;DHT22;49296;48.188;11.566;2022-07-24T06:56:35;23.90;58.64
63202;DHT22;49296;48.188;11.566;2022-07-24T06:59:02;23.94;58.32
63202;DHT22;49296;48.188;11.566;2022-07-24T07:01:29;23.95;58.07
63202;DHT22;49296;48.188;11.566;2022-07-24T07:03:55;23.96;57.79
63202;DHT22;49296;48.188;11.566;2022-07-24T07:06:23;23.99;57.88
63202;DHT22;49296;48.188;11.566;2022-07-24T07:08:50;24.02;58.07
63202;DHT22;49296;48.188;11.566;2022-07-24T07:11:16;24.05;58.06
63202;DHT22;49296;48.188;11.566;2022-07-24T07:13:43;24.08;57.87
63202;DHT22;49296;48.188;11.566;2022-07-24T07:16:09;23.99;57.68
63202;DHT22;49296;48.188;11.566;2022-07-24T07:18:36;24.06;57.50
63202;DHT22;49296;48.188;11.566;2022-07-24T07:21:03;24.12;56.76
63202;DHT22;49296;48.188;11.566;2022-07-24T07:23:31;24.17;56.62
63202;DHT22;49296;48.188;11.566;2022-07-24T07:25:57;24.29;56.26
63202;DHT22;49296;48.188;11.566;2022-07-24T07:28:24;24.37;55.56
63202;DHT22;49296;48.188;11.566;2022-07-24T07:30:50;24.44;55.65
63202;DHT22;49296;48.188;11.566;2022-07-24T07:33:17;24.50;55.68
63202;DHT22;49296;48.188;11.566;2022-07-24T07:35:44;24.56;54.97
63202;DHT22;49296;48.188;11.566;2022-07-24T07:38:10;24.53;54.78
63202;DHT22;49296;48.188;11.566;2022-07-24T07:40:38;24.47;54.85
63202;DHT22;49296;48.188;11.566;2022-07-24T07:43:04;24.47;54.53
63202;DHT22;49296;48.188;11.566;2022-07-24T07:45:31;24.57;54.32
63202;DHT22;49296;48.188;11.566;2022-07-24T07:47:58;24.64;54.11
63202;DHT22;49296;48.188;11.566;2022-07-24T07:50:24;24.71;54.18
63202;DHT22;49296;48.188;11.566;2022-07-24T07:52:51;24.74;54.23
63202;DHT22;49296;48.188;11.566;2022-07-24T07:55:17;24.71;53.79
63202;DHT22;49296;48.188;11.566;2022-07-24T07:57:45;24.75;54.23
63202;DHT22;49296;48.188;11.566;2022-07-24T08:00:12;24.74;54.29
63202;DHT22;49296;48.188;11.566;2022-07-24T08:02:39;24.72;53.85
63202;DHT22;49296;48.188;11.566;2022-07-24T08:05:05;24.82;53.35
63202;DHT22;49296;48.188;11.566;2022-07-24T08:07:32;24.95;53.22
63202;DHT22;49296;48.188;11.566;2022-07-24T08:09:59;24.91;52.64
63202;DHT22;49296;48.188;11.566;2022-07-24T08:12:25;24.88;52.36
63202;DHT22;49296;48.188;11.566;2022-07-24T08:14:53;24.99;51.63
63202;DHT22;49296;48.188;11.566;2022-07-24T08:17:20;25.08;51.69
63202;DHT22;49296;48.188;11.566;2022-07-24T08:19:46;25.18;52.39
63202;DHT22;49296;48.188;11.566;2022-07-24T08:22:13;25.16;51.16
63202;DHT22;49296;48.188;11.566;2022-07-24T08:24:39;25.24;51.40
63202;DHT22;49296;48.188;11.566;2022-07-24T08:27:06;25.23;50.73
63202;DHT22;49296;48.188;11.566;2022-07-24T08:29:32;25.22;50.76
63202;DHT22;49296;48.188;11.566;2022-07-24T08:32:00;25.30;50.32
63202;DHT22;49296;48.188;11.566;2022-07-24T08:34:27;25.41;49.59
63202;DHT22;49296;48.188;11.566;2022-07-24T08:36:53;25.53;49.51
63202;DHT22;49296;48.188;11.566;2022-07-24T08:39:20;25.47;48.60
63202;DHT22;49296;48.188;11.566;2022-07-24T08:41:46;25.51;48.87
63202;DHT22;49296;48.188;11.566;2022-07-24T08:44:13;25.53;48.86
63202;DHT22;49296;48.188;11.566;2022-07-24T08:46:40;25.65;48.50
63202;DHT22;49296;48.188;11.566;2022-07-24T08:49:09;25.67;48.25
63202;DHT22;49296;48.188;11.566;2022-07-24T08:51:36;25.55;48.49
63202;DHT22;49296;48.188;11.566;2022-07-24T08:54:03;25.40;48.33
63202;DHT22;49296;48.188;11.566;2022-07-24T08:56:29;25.40;48.67
63202;DHT22;49296;48.188;11.566;2022-07-24T08:58:58;25.51;49.31
63202;DHT22;49296;48.188;11.566;2022-07-24T09:01:25;25.58;49.09
63202;DHT22;49296;48.188;11.566;2022-07-24T09:03:51;25.70;48.91
63202;DHT22;49296;48.188;11.566;2022-07-24T09:06:19;25.82;48.55
63202;DHT22;49296;48.188;11.566;2022-07-24T09:08:56;25.91;48.30
63202;DHT22;49296;48.188;11.566;2022-07-24T09:11:23;25.98;48.33
63202;DHT22;49296;48.188;11.566;2022-07-24T09:13:50;25.86;47.91
63202;DHT22;49296;48.188;11.566;2022-07-24T09:16:35;25.89;48.05
63202;DHT22;49296;48.188;11.566;2022-07-24T09:19:02;25.99;47.93
63202;DHT22;49296;48.188;11.566;2022-07-24T09:21:30;26.09;47.92
63202;DHT22;49296;48.188;11.566;2022-07-24T09:23:57;26.10;48.00
63202;DHT22;49296;48.188;11.566;2022-07-24T09:26:31;26.20;48.13
63202;DHT22;49296;48.188;11.566;2022-07-24T09:29:08;26.26;47.55
63202;DHT22;49296;48.188;11.566;2022-07-24T09:31:48;26.37;47.91
63202;DHT22;49296;48.188;11.566;2022-07-24T09:34:15;26.48;47.83
63202;DHT22;49296;48.188;11.566;2022-07-24T09:36:43;26.45;47.12
63202;DHT22;49296;48.188;11.566;2022-07-24T09:39:17;26.57;47.32
63202;DHT22;49296;48.188;11.566;2022-07-24T09:41:49;26.60;47.05
63202;DHT22;49296;48.188;11.566;2022-07-24T09:44:16;26.67;46.56
63202;DHT22;49296;48.188;11.566;2022-07-24T09:46:45;26.77;46.63
63202;DHT22;49296;48.188;11.566;2022-07-24T09:49:18;26.69;45.93
63202;DHT22;49296;48.188;11.566;2022-07-24T09:51:47;26.71;46.08
63202;DHT22;49296;48.188;11.566;2022-07-24T09:54:33;26.72;46.53
63202;DHT22;49296;48.188;11.566;2022-07-24T09:57:11;26.51;46.16
63202;DHT22;49296;48.188;11.566;2022-07-24T09:59:40;26.62;46.58
63202;DHT22;49296;48.188;11.566;2022-07-24T10:02:06;26.75;46.89
63202;DHT22;49296;48.188;11.566;2022-07-24T10:04:34;26.72;46.27
63202;DHT22;49296;48.188;11.566;2022-07-24T10:07:02;26.84;46.83
63202;DHT22;49296;48.188;11.566;2022-07-24T10:09:29;26.89;46.15
63202;DHT22;49296;48.188;11.566;2022-07-24T10:11:55;26.92;46.29
63202;DHT22;49296;48.188;11.566;2022-07-24T10:14:23;26.91;46.21
63202;DHT22;49296;48.188;11.566;2022-07-24T10:16:52;27.03;46.32
63202;DHT22;49296;48.188;11.566;2022-07-24T10:19:24;27.05;45.86
63202;DHT22;49296;48.188;11.566;2022-07-24T10:21:54;27.14;46.25
63202;DHT22;49296;48.188;11.566;2022-07-24T10:27:18;27.29;45.70
63202;DHT22;49296;48.188;11.566;2022-07-24T10:29:48;27.36;45.15
63202;DHT22;49296;48.188;11.566;2022-07-24T10:32:14;27.40;44.99
63202;DHT22;49296;48.188;11.566;2022-07-24T10:34:42;27.48;45.33
63202;DHT22;49296;48.188;11.566;2022-07-24T10:37:15;27.58;45.51
63202;DHT22;49296;48.188;11.566;2022-07-24T10:39:43;27.51;44.61
63202;DHT22;49296;48.188;11.566;2022-07-24T10:42:12;27.57;44.43
63202;DHT22;49296;48.188;11.566;2022-07-24T10:44:40;27.57;44.29
63202;DHT22;49296;48.188;11.566;2022-07-24T10:47:07;27.53;44.27
63202;DHT22;49296;48.188;11.566;2022-07-24T10:49:41;27.54;44.20
63202;DHT22;49296;48.188;11.566;2022-07-24T10:52:08;27.58;44.73
63202;DHT22;49296;48.188;11.566;2022-07-24T10:54:35;27.62;45.12
63202;DHT22;49296;48.188;11.566;2022-07-24T10:57:01;27.78;44.95
63202;DHT22;49296;48.188;11.566;2022-07-24T10:59:34;27.82;44.98
63202;DHT22;49296;48.188;11.566;2022-07-24T11:04:47;27.80;44.08
63202;DHT22;49296;48.188;11.566;2022-07-24T11:07:35;27.61;44.31
63202;DHT22;49296;48.188;11.566;2022-07-24T11:10:02;27.68;44.63
63202;DHT22;49296;48.188;11.566;2022-07-24T11:12:32;27.78;44.82
63202;DHT22;49296;48.188;11.566;2022-07-24T11:14:59;27.85;43.77
63202;DHT22;49296;48.188;11.566;2022-07-24T11:17:40;27.96;43.72
63202;DHT22;49296;48.188;11.566;2022-07-24T11:20:08;28.09;43.66
63202;DHT22;49296;48.188;11.566;2022-07-24T11:22:41;28.21;43.79
63202;DHT22;49296;48.188;11.566;2022-07-24T11:25:08;28.24;43.07
63202;DHT22;49296;48.188;11.566;2022-07-24T11:27:40;28.17;42.73
63202;DHT22;49296;48.188;11.566;2022-07-24T11:30:07;28.14;42.93
63202;DHT22;49296;48.188;11.566;2022-07-24T11:32:35;28.28;43.07
63202;DHT22;49296;48.188;11.566;2022-07-24T11:35:03;28.26;42.97
63202;DHT22;49296;48.188;11.566;2022-07-24T11:37:34;28.28;42.79
63202;DHT22;49296;48.188;11.566;2022-07-24T11:40:02;28.43;43.07
63202;DHT22;49296;48.188;11.566;2022-07-24T11:42:30;28.39;43.50
63202;DHT22;49296;48.188;11.566;2022-07-24T11:44:56;28.44;43.84
63202;DHT22;49296;48.188;11.566;2022-07-24T11:47:23;28.57;42.84
63202;DHT22;49296;48.188;11.566;2022-07-24T11:49:50;28.50;43.19
63202;DHT22;49296;48.188;11.566;2022-07-24T11:52:19;28.17;43.18
63202;DHT22;49296;48.188;11.566;2022-07-24T11:54:46;27.99;43.14
63202;DHT22;49296;48.188;11.566;2022-07-24T11:57:18;27.99;42.85
63202;DHT22;49296;48.188;11.566;2022-07-24T11:59:46;28.02;43.20
63202;DHT22;49296;48.188;11.566;2022-07-24T12:02:13;27.89;42.94
63202;DHT22;49296;48.188;11.566;2022-07-24T12:04:40;28.16;42.80
63202;DHT22;49296;48.188;11.566;2022-07-24T12:07:07;28.19;42.43
63202;DHT22;49296;48.188;11.566;2022-07-24T12:09:42;28.21;42.21
63202;DHT22;49296;48.188;11.566;2022-07-24T12:12:18;28.27;42.30
63202;DHT22;49296;48.188;11.566;2022-07-24T12:14:44;28.43;42.31
63202;DHT22;49296;48.188;11.566;2022-07-24T12:17:11;28.75;42.27
63202;DHT22;49296;48.188;11.566;2022-07-24T12:19:37;28.92;41.58
63202;DHT22;49296;48.188;11.566;2022-07-24T12:22:04;29.23;40.17
63202;DHT22;49296;48.188;11.566;2022-07-24T12:24:31;29.53;40.97
63202;DHT22;49296;48.188;11.566;2022-07-24T12:26:58;29.75;39.55
63202;DHT22;49296;48.188;11.566;2022-07-24T12:29:26;29.86;39.62
63202;DHT22;49296;48.188;11.566;2022-07-24T12:31:53;30.10;38.96
63202;DHT22;49296;48.188;11.566;2022-07-24T12:34:41;30.23;39.14
63202;DHT22;49296;48.188;11.566;2022-07-24T12:37:13;30.45;39.49
63202;DHT22;49296;48.188;11.566;2022-07-24T12:39:44;30.53;38.51
63202;DHT22;49296;48.188;11.566;2022-07-24T12:42:11;30.68;39.02
63202;DHT22;49296;48.188;11.566;2022-07-24T12:44:41;30.90;38.39
63202;DHT22;49296;48.188;11.566;2022-07-24T12:47:09;31.00;37.81
63202;DHT22;49296;48.188;11.566;2022-07-24T12:49:39;31.04;38.84
63202;DHT22;49296;48.188;11.566;2022-07-24T12:52:06;31.03;37.96
63202;DHT22;49296;48.188;11.566;2022-07-24T12:54:45;30.57;38.01
63202;DHT22;49296;48.188;11.566;2022-07-24T12:57:12;30.61;38.56
63202;DHT22;49296;48.188;11.566;2022-07-24T12:59:40;30.45;39.44
63202;DHT22;49296;48.188;11.566;2022-07-24T13:02:08;30.02;38.13
63202;DHT22;49296;48.188;11.566;2022-07-24T13:04:39;30.03;39.26
63202;DHT22;49296;48.188;11.566;2022-07-24T13:07:07;30.48;38.36
63202;DHT22;49296;48.188;11.566;2022-07-24T13:09:34;30.88;38.36
63202;DHT22;49296;48.188;11.566;2022-07-24T13:12:02;31.27;37.32
63202;DHT22;49296;48.188;11.566;2022-07-24T13:14:28;31.81;37.01
63202;DHT22;49296;48.188;11.566;2022-07-24T13:17:00;31.86;36.75
63202;DHT22;49296;48.188;11.566;2022-07-24T13:19:28;32.27;36.19
63202;DHT22;49296;48.188;11.566;2022-07-24T13:21:55;32.55;36.23
63202;DHT22;49296;48.188;11.566;2022-07-24T13:24:21;32.76;35.99
63202;DHT22;49296;48.188;11.566;2022-07-24T13:26:48;33.15;35.91
63202;DHT22;49296;48.188;11.566;2022-07-24T13:29:14;33.19;35.20
63202;DHT22;49296;48.188;11.566;2022-07-24T13:31:41;33.19;34.94
63202;DHT22;49296;48.188;11.566;2022-07-24T13:34:07;33.00;36.39
63202;DHT22;49296;48.188;11.566;2022-07-24T13:36:35;32.20;36.28
63202;DHT22;49296;48.188;11.566;2022-07-24T13:39:02;32.24;36.29
63202;DHT22;49296;48.188;11.566;2022-07-24T13:41:29;32.08;37.20
63202;DHT22;49296;48.188;11.566;2022-07-24T13:43:55;31.99;36.23
63202;DHT22;49296;48.188;11.566;2022-07-24T13:46:22;31.89;37.62
63202;DHT22;49296;48.188;11.566;2022-07-24T13:48:48;32.38;36.07
63202;DHT22;49296;48.188;11.566;2022-07-24T13:51:15;32.81;36.15
63202;DHT22;49296;48.188;11.566;2022-07-24T13:53:42;33.22;34.30
63202;DHT22;49296;48.188;11.566;2022-07-24T13:56:09;33.55;33.39
63202;DHT22;49296;48.188;11.566;2022-07-24T13:58:35;32.82;34.55
63202;DHT22;49296;48.188;11.566;2022-07-24T14:01:03;33.00;34.83
63202;DHT22;49296;48.188;11.566;2022-07-24T14:03:29;33.27;34.66
63202;DHT22;49296;48.188;11.566;2022-07-24T14:05:56;32.29;34.14
63202;DHT22;49296;48.188;11.566;2022-07-24T14:08:22;32.21;36.63
63202;DHT22;49296;48.188;11.566;2022-07-24T14:10:50;31.95;34.48
63202;DHT22;49296;48.188;11.566;2022-07-24T14:13:17;32.64;34.33
63202;DHT22;49296;48.188;11.566;2022-07-24T14:15:43;33.06;32.78
63202;DHT22;49296;48.188;11.566;2022-07-24T14:18:10;33.75;32.98
63202;DHT22;49296;48.188;11.566;2022-07-24T14:20:36;33.99;33.26
63202;DHT22;49296;48.188;11.566;2022-07-24T14:23:03;34.48;32.65
63202;DHT22;49296;48.188;11.566;2022-07-24T14:25:30;34.85;31.69
63202;DHT22;49296;48.188;11.566;2022-07-24T14:27:57;34.57;31.54
63202;DHT22;49296;48.188;11.566;2022-07-24T14:30:24;34.24;31.98
63202;DHT22;49296;48.188;11.566;2022-07-24T14:32:50;34.27;32.90
63202;DHT22;49296;48.188;11.566;2022-07-24T14:35:17;34.17;32.41
63202;DHT22;49296;48.188;11.566;2022-07-24T14:37:43;34.82;32.42
63202;DHT22;49296;48.188;11.566;2022-07-24T14:40:10;35.22;31.23
63202;DHT22;49296;48.188;11.566;2022-07-24T14:42:37;35.34;30.76
63202;DHT22;49296;48.188;11.566;2022-07-24T14:45:05;35.44;30.50
63202;DHT22;49296;48.188;11.566;2022-07-24T14:47:32;35.74;30.06
63202;DHT22;49296;48.188;11.566;2022-07-24T14:49:58;35.68;29.94
63202;DHT22;49296;48.188;11.566;2022-07-24T14:52:25;35.80;30.03
63202;DHT22;49296;48.188;11.566;2022-07-24T14:54:52;35.19;30.13
63202;DHT22;49296;48.188;11.566;2022-07-24T14:57:18;35.33;30.90
63202;DHT22;49296;48.188;11.566;2022-07-24T14:59:45;34.55;30.46
63202;DHT22;49296;48.188;11.566;2022-07-24T15:02:13;33.57;31.38
63202;DHT22;49296;48.188;11.566;2022-07-24T15:04:39;33.35;32.94
63202;DHT22;49296;48.188;11.566;2022-07-24T15:07:06;33.12;32.93
63202;DHT22;49296;48.188;11.566;2022-07-24T15:09:33;32.83;33.52
63202;DHT22;49296;48.188;11.566;2022-07-24T15:11:59;33.61;32.80
63202;DHT22;49296;48.188;11.566;2022-07-24T15:14:26;34.06;31.79
63202;DHT22;49296;48.188;11.566;2022-07-24T15:16:52;33.46;32.23
63202;DHT22;49296;48.188;11.566;2022-07-24T15:19:20;33.88;32.18
63202;DHT22;49296;48.188;11.566;2022-07-24T15:21:46;34.78;32.23
63202;DHT22;49296;48.188;11.566;2022-07-24T15:24:13;34.55;31.56